createdAt,value
2023-05-13T00:02:08.609Z,100731.78
2023-05-13T00:07:10.619Z,100735.31
2023-05-13T00:12:11.266Z,100718.81
2023-05-13T00:17:11.912Z,100722.34
2023-05-13T00:22:13.881Z,100725.00
2023-05-13T00:27:14.489Z,100725.06
2023-05-13T00:32:15.657Z,100721.69
2023-05-13T00:37:17.690Z,100719.19
2023-05-13T00:42:18.357Z,100719.25
2023-05-13T00:47:19.154Z,100721.94
2023-05-13T00:52:21.377Z,100722.09
2023-05-13T00:57:22.243Z,100720.31
2023-05-13T01:02:28.526Z,100727.38
2023-05-13T01:07:39.167Z,100727.41
2023-05-13T01:12:42.275Z,100731.88
2023-05-13T01:17:48.713Z,100740.47
2023-05-13T01:22:51.423Z,100748.47
2023-05-13T01:27:53.145Z,100756.28
2023-05-13T01:32:54.930Z,100758.03
2023-05-13T01:37:58.498Z,100759.88
2023-05-13T01:42:59.493Z,100768.59
2023-05-13T01:48:00.657Z,100766.91
2023-05-13T01:53:12.437Z,100767.75
2023-05-13T01:58:13.275Z,100766.16
2023-05-13T02:03:14.373Z,100771.38
2023-05-13T02:08:16.916Z,100774.03
2023-05-13T02:13:17.816Z,100761.97
2023-05-13T02:18:18.684Z,100772.41
2023-05-13T02:23:20.720Z,100774.16
2023-05-13T02:28:21.442Z,100776.03
2023-05-13T02:33:22.165Z,100772.56
2023-05-13T02:38:24.855Z,100776.13
2023-05-13T02:43:27.530Z,100776.16
2023-05-13T02:48:33.455Z,100776.13
2023-05-13T02:53:36.924Z,100782.22
2023-05-13T02:58:39.586Z,100782.25
2023-05-13T03:03:40.701Z,100772.75
2023-05-13T03:08:42.911Z,100781.41
2023-05-13T03:13:43.633Z,100774.59
2023-05-13T03:18:44.389Z,100780.63
2023-05-13T03:23:46.521Z,100778.88
2023-05-13T03:28:47.712Z,100782.28
2023-05-13T03:33:49.619Z,100777.91
2023-05-13T03:38:51.944Z,100778.75
2023-05-13T03:43:52.671Z,100786.53
2023-05-13T03:48:53.476Z,100788.22
2023-05-13T03:53:55.728Z,100790.84
2023-05-13T03:58:58.412Z,100791.72
2023-05-13T04:03:59.198Z,100794.31
2023-05-13T04:09:01.273Z,100798.59
2023-05-13T04:14:01.974Z,100797.72
2023-05-13T04:19:02.732Z,100802.88
2023-05-13T04:24:05.330Z,100805.34
2023-05-13T04:29:05.996Z,100806.28
2023-05-13T04:34:06.802Z,100802.78
2023-05-13T04:39:10.478Z,100807.94
2023-05-13T04:44:11.562Z,100819.19
2023-05-13T04:49:12.268Z,100822.53
2023-05-13T04:54:15.205Z,100822.41
2023-05-13T04:59:16.057Z,100821.44
2023-05-13T05:04:16.885Z,100823.91
2023-05-13T05:09:20.217Z,100830.72
2023-05-13T05:14:23.653Z,100834.06
2023-05-13T05:19:25.110Z,100837.34
2023-05-13T05:24:29.532Z,100829.44
2023-05-13T05:29:30.339Z,100840.47
2023-05-13T05:34:31.172Z,100840.19
2023-05-13T05:39:35.272Z,100837.28
2023-05-13T05:44:36.181Z,100841.31
2023-05-13T05:49:37.322Z,100834.94
2023-05-13T05:54:40.278Z,100840.03
2023-05-13T05:59:41.018Z,100835.44
2023-05-13T06:04:42.077Z,100831.47
2023-05-13T06:09:44.339Z,100831.94
2023-05-13T06:14:45.198Z,100829.09
2023-05-13T06:19:46.013Z,100830.63
2023-05-13T06:24:48.053Z,100828.44
2023-05-13T06:29:48.725Z,100835.78
2023-05-13T06:34:52.973Z,100825.84
2023-05-13T06:39:56.305Z,100823.78
2023-05-13T06:44:57.821Z,100821.81
2023-05-13T06:50:03.065Z,100822.25
2023-05-13T06:55:06.853Z,100821.91
2023-05-13T07:00:08.442Z,100817.91
2023-05-13T07:05:11.176Z,100811.50
2023-05-13T07:10:13.600Z,100803.16
2023-05-13T07:15:14.269Z,100800.91
2023-05-13T07:20:15.093Z,100797.22
2023-05-13T07:25:17.405Z,100801.81
2023-05-13T07:30:18.174Z,100796.03
2023-05-13T07:35:18.983Z,100796.38
2023-05-13T07:40:22.112Z,100787.50
2023-05-13T07:45:23.306Z,100785.16
2023-05-13T07:50:24.360Z,100782.19
2023-05-13T07:55:26.437Z,100778.88
2023-05-13T08:00:27.244Z,100778.78
2023-05-13T08:05:28.006Z,100775.31
2023-05-13T08:10:30.505Z,100768.63
2023-05-13T08:15:31.181Z,100766.75
2023-05-13T08:20:31.957Z,100765.72
2023-05-13T08:25:34.045Z,100763.97
2023-05-13T08:30:34.741Z,100753.34
2023-05-13T08:35:35.410Z,100750.91
2023-05-13T08:40:37.881Z,100748.22
2023-05-13T08:45:40.279Z,100746.56
2023-05-13T08:50:47.320Z,100749.63
2023-05-13T08:55:51.254Z,100747.31
2023-05-13T09:00:54.130Z,100742.19
2023-05-13T09:05:54.956Z,100743.41
2023-05-13T09:10:57.927Z,100753.41
2023-05-13T09:15:58.961Z,100740.31
2023-05-13T09:20:59.765Z,100743.44
2023-05-13T09:26:01.876Z,100750.66
2023-05-13T09:31:02.897Z,100741.09
2023-05-13T09:36:05.926Z,100744.81
2023-05-13T09:41:08.033Z,100745.75
2023-05-13T09:46:10.434Z,100746.63
2023-05-13T09:51:12.068Z,100736.44
2023-05-13T09:56:14.070Z,100735.47
2023-05-13T10:01:14.805Z,100731.00
2023-05-13T10:06:17.847Z,100735.13
2023-05-13T10:11:20.559Z,100737.63
2023-05-13T10:16:21.353Z,100729.28
2023-05-13T10:21:22.581Z,100719.97
2023-05-13T10:26:25.001Z,100721.91
2023-05-13T10:31:26.895Z,100724.28
2023-05-13T10:36:43.445Z,100715.97
2023-05-13T10:42:37.196Z,100719.31
2023-05-13T10:47:38.764Z,100713.31
2023-05-13T10:52:44.150Z,100718.72
2023-05-13T10:58:05.287Z,100728.06
2023-05-13T11:03:29.460Z,100734.69
2023-05-13T11:08:40.640Z,100745.84
2023-05-13T11:13:42.687Z,100755.03
2023-05-13T11:18:43.627Z,100755.66
2023-05-13T11:23:56.805Z,100763.41
2023-05-13T11:29:06.427Z,100761.47
2023-05-13T11:34:10.869Z,100761.38
2023-05-13T11:39:14.181Z,100765.97
2023-05-13T11:44:17.628Z,100768.00
2023-05-13T11:49:34.969Z,100769.03
2023-05-13T11:54:46.502Z,100774.16
2023-05-13T11:59:58.614Z,100786.13
2023-05-13T12:05:01.783Z,100775.63
2023-05-13T12:10:04.052Z,100772.81
2023-05-13T12:15:10.233Z,100778.72
2023-05-13T12:20:13.319Z,100776.97
2023-05-13T12:25:40.280Z,100781.69
2023-05-13T12:30:43.759Z,100788.84
2023-05-13T12:35:45.065Z,100793.66
2023-05-13T12:40:46.741Z,100804.72
2023-05-13T12:45:54.785Z,100802.47
2023-05-13T12:50:56.441Z,100811.56
2023-05-13T12:55:57.324Z,100801.19
2023-05-13T13:00:59.403Z,100803.81
2023-05-13T13:06:00.237Z,100806.25
2023-05-13T13:11:01.362Z,100804.34
2023-05-13T13:16:03.459Z,100811.63
2023-05-13T13:21:05.330Z,100805.19
2023-05-13T13:26:06.147Z,100801.16
2023-05-13T13:31:08.670Z,100811.47
2023-05-13T13:36:09.682Z,100807.31
2023-05-13T13:41:10.398Z,100815.28
2023-05-13T13:46:13.869Z,100806.75
2023-05-13T13:51:15.399Z,100799.75
2023-05-13T13:56:16.290Z,100812.25
2023-05-13T14:01:19.685Z,100814.97
2023-05-13T14:06:20.924Z,100809.47
2023-05-13T14:11:24.463Z,100803.66
2023-05-13T14:16:26.969Z,100795.34
2023-05-13T14:21:27.695Z,100808.34
2023-05-13T14:26:28.550Z,100798.81
2023-05-13T14:31:30.953Z,100810.28
2023-05-13T14:36:32.797Z,100806.38
2023-05-13T14:41:33.798Z,100800.19
2023-05-13T14:46:38.201Z,100803.69
2023-05-13T14:51:38.986Z,100809.47
2023-05-13T14:56:41.521Z,100806.91
2023-05-13T15:01:43.602Z,100804.94
2023-05-13T15:06:46.886Z,100804.63
2023-05-13T15:11:47.667Z,100798.56
2023-05-13T15:16:49.758Z,100800.03
2023-05-13T15:21:50.866Z,100810.91
2023-05-13T15:26:51.577Z,100812.97
2023-05-13T15:31:54.401Z,100820.69
2023-05-13T15:36:55.196Z,100820.19
2023-05-13T15:41:56.297Z,100821.69
2023-05-13T15:46:58.400Z,100813.53
2023-05-13T15:51:59.172Z,100810.16
2023-05-13T15:57:00.206Z,100804.47
2023-05-13T16:02:03.527Z,100800.16
2023-05-13T16:07:07.246Z,100799.09
2023-05-13T16:12:08.661Z,100791.91
2023-05-13T16:17:10.820Z,100794.50
2023-05-13T16:22:38.124Z,100789.94
2023-05-13T16:27:40.513Z,100782.44
2023-05-13T16:32:42.858Z,100789.53
2023-05-13T16:37:43.580Z,100784.31
2023-05-13T16:42:44.339Z,100780.97
2023-05-13T16:47:46.587Z,100771.91
2023-05-13T16:52:47.502Z,100769.66
2023-05-13T16:57:48.352Z,100772.69
2023-05-13T17:02:50.581Z,100776.09
2023-05-13T17:07:51.320Z,100781.63
2023-05-13T17:12:53.799Z,100790.34
2023-05-13T17:17:57.126Z,100787.16
2023-05-13T17:22:58.999Z,100782.25
2023-05-13T17:27:59.998Z,100782.25
2023-05-13T17:33:02.138Z,100787.47
2023-05-13T17:38:02.858Z,100791.91
2023-05-13T17:43:04.028Z,100786.41
2023-05-13T17:48:08.030Z,100792.56
2023-05-13T17:53:09.871Z,100783.94
2023-05-13T17:58:10.670Z,100785.72
2023-05-13T18:03:12.978Z,100790.16
2023-05-13T18:08:13.681Z,100784.38
2023-05-13T18:13:14.460Z,100793.09
2023-05-13T18:18:17.659Z,100787.59
2023-05-13T18:23:18.735Z,100785.19
2023-05-13T18:28:19.388Z,100775.81
2023-05-13T18:33:21.853Z,100786.41
2023-05-13T18:38:22.548Z,100787.38
2023-05-13T18:43:23.242Z,100790.59
2023-05-13T18:48:25.927Z,100796.63
2023-05-13T18:53:26.856Z,100786.50
2023-05-13T18:58:28.605Z,100793.63
2023-05-13T19:03:30.754Z,100802.66
2023-05-13T19:08:31.535Z,100805.56
2023-05-13T19:13:43.414Z,100813.56
2023-05-13T19:18:48.982Z,100814.81
2023-05-13T19:23:50.120Z,100817.63
2023-05-13T19:28:50.812Z,100818.56
2023-05-13T19:33:53.451Z,100819.56
2023-05-13T19:38:54.335Z,100812.00
2023-05-13T19:43:55.066Z,100811.16
2023-05-13T19:48:57.099Z,100819.78
2023-05-13T19:53:58.030Z,100831.59
2023-05-13T19:58:58.751Z,100830.00
2023-05-13T20:04:01.038Z,100832.06
2023-05-13T20:09:02.897Z,100825.44
2023-05-13T20:14:04.170Z,100829.81
2023-05-13T20:19:06.444Z,100830.13
2023-05-13T20:24:08.204Z,100830.31
2023-05-13T20:29:09.160Z,100824.38
2023-05-13T20:34:11.389Z,100826.41
2023-05-13T20:39:12.208Z,100824.75
2023-05-13T20:44:15.825Z,100829.94
2023-05-13T20:49:18.341Z,100831.88
2023-05-13T20:54:19.077Z,100829.94
2023-05-13T20:59:19.834Z,100828.22
2023-05-13T21:04:21.915Z,100828.22
2023-05-13T21:09:22.625Z,100828.19
2023-05-13T21:14:23.360Z,100832.53
2023-05-13T21:19:26.010Z,100831.47
2023-05-13T21:24:26.717Z,100835.72
2023-05-13T21:29:27.397Z,100834.09
2023-05-13T21:34:29.582Z,100833.97
2023-05-13T21:39:30.334Z,100830.47
2023-05-13T21:44:31.038Z,100826.03
2023-05-13T21:49:33.152Z,100826.03
2023-05-13T21:54:33.917Z,100816.50
2023-05-13T21:59:34.685Z,100824.22
2023-05-13T22:04:36.863Z,100830.38
2023-05-13T22:09:37.590Z,100830.47
2023-05-13T22:14:38.301Z,100819.06
2023-05-13T22:19:40.425Z,100819.28
2023-05-13T22:24:41.264Z,100814.72
2023-05-13T22:29:41.944Z,100821.84
2023-05-13T22:34:44.277Z,100817.41
2023-05-13T22:39:44.993Z,100811.31
2023-05-13T22:44:45.677Z,100814.78
2023-05-13T22:49:47.668Z,100807.06
2023-05-13T22:54:48.366Z,100808.75
2023-05-13T22:59:49.151Z,100801.88
2023-05-13T23:04:51.183Z,100803.78
2023-05-13T23:09:52.009Z,100800.09
2023-05-13T23:14:52.817Z,100799.28
2023-05-13T23:19:54.851Z,100791.63
2023-05-13T23:24:55.659Z,100791.72
2023-05-13T23:29:56.346Z,100789.28
2023-05-13T23:34:58.367Z,100787.41
2023-05-13T23:39:59.020Z,100769.22
2023-05-13T23:44:59.704Z,100769.28
2023-05-13T23:50:02.298Z,100769.31
2023-05-13T23:55:03.440Z,100762.44
